createdAt,value
2018-03-26T00:00:56.817Z,40.00
2018-03-26T00:03:25.227Z,43.87
2018-03-26T00:05:53.710Z,37.53
2018-03-26T00:08:22.295Z,45.63
2018-03-26T00:10:50.977Z,48.43
2018-03-26T00:13:21.008Z,42.60
2018-03-26T00:15:50.148Z,45.10
2018-03-26T00:18:18.515Z,42.60
2018-03-26T00:20:47.223Z,57.87
2018-03-26T00:23:15.670Z,75.03
2018-03-26T00:25:44.757Z,58.40
2018-03-26T00:28:13.479Z,77.00
2018-03-26T00:30:42.123Z,44.30
2018-03-26T00:33:11.630Z,45.83
2018-03-26T00:35:42.108Z,60.43
2018-03-26T00:38:12.095Z,63.37
2018-03-26T00:40:41.896Z,48.63
2018-03-26T00:43:10.811Z,46.40
2018-03-26T00:45:40.302Z,47.07
2018-03-26T00:48:09.738Z,51.87
2018-03-26T00:50:38.253Z,49.90
2018-03-26T00:53:08.164Z,46.67
2018-03-26T00:55:37.566Z,35.93
2018-03-26T00:58:06.410Z,42.00
2018-03-26T01:00:34.776Z,38.60
2018-03-26T01:03:10.045Z,43.87
2018-03-26T01:05:38.493Z,48.60
2018-03-26T01:08:07.193Z,42.37
2018-03-26T01:10:36.480Z,41.97
2018-03-26T01:13:05.361Z,43.97
2018-03-26T01:15:34.468Z,48.43
2018-03-26T01:18:04.392Z,49.37
2018-03-26T01:20:35.156Z,50.30
2018-03-26T01:23:03.639Z,45.97
2018-03-26T01:25:32.279Z,52.87
2018-03-26T01:28:00.677Z,47.87
2018-03-26T01:30:31.346Z,49.80
2018-03-26T01:33:00.151Z,45.60
2018-03-26T01:35:29.070Z,47.87
2018-03-26T01:37:57.622Z,52.23
2018-03-26T01:40:26.159Z,53.67
2018-03-26T01:42:55.030Z,51.33
2018-03-26T01:45:24.228Z,51.40
2018-03-26T01:47:52.589Z,52.97
2018-03-26T01:50:21.341Z,49.40
2018-03-26T01:52:50.830Z,50.20
2018-03-26T01:55:20.141Z,60.43
2018-03-26T01:57:49.174Z,70.87
2018-03-26T02:00:17.876Z,72.80
2018-03-26T02:02:46.613Z,88.27
2018-03-26T02:05:14.969Z,77.47
2018-03-26T02:07:44.362Z,73.77
2018-03-26T02:10:12.821Z,61.13
2018-03-26T02:12:41.824Z,71.83
2018-03-26T02:15:10.295Z,80.60
2018-03-26T02:17:38.703Z,66.30
2018-03-26T02:20:07.357Z,75.03
2018-03-26T02:22:37.096Z,71.50
2018-03-26T02:25:05.465Z,72.20
2018-03-26T02:27:34.924Z,57.90
2018-03-26T02:30:03.802Z,60.50
2018-03-26T02:32:33.798Z,56.93
2018-03-26T02:35:02.293Z,59.30
2018-03-26T02:37:32.388Z,56.93
2018-03-26T02:40:01.016Z,53.47
2018-03-26T02:42:29.641Z,59.73
2018-03-26T02:45:00.086Z,55.00
2018-03-26T02:47:30.140Z,53.20
2018-03-26T02:49:58.739Z,54.97
2018-03-26T02:52:27.162Z,43.57
2018-03-26T02:54:56.362Z,45.73
2018-03-26T02:57:25.008Z,48.37
2018-03-26T02:59:54.001Z,48.83
2018-03-26T03:02:23.211Z,55.83
2018-03-26T03:04:51.898Z,46.77
2018-03-26T03:07:20.692Z,44.80
2018-03-26T03:09:49.872Z,40.43
2018-03-26T03:12:18.228Z,43.67
2018-03-26T03:14:47.141Z,46.33
2018-03-26T03:17:16.086Z,51.37
2018-03-26T03:19:44.445Z,42.33
2018-03-26T03:22:13.005Z,46.60
2018-03-26T03:24:41.548Z,51.53
2018-03-26T03:27:09.922Z,48.53
2018-03-26T03:29:38.279Z,53.73
2018-03-26T03:32:07.262Z,45.43
2018-03-26T03:34:35.948Z,47.47
2018-03-26T03:37:04.618Z,50.67
2018-03-26T03:39:33.165Z,51.43
2018-03-26T03:42:01.668Z,58.87
2018-03-26T03:44:30.020Z,60.23
2018-03-26T03:46:59.877Z,52.30
2018-03-26T03:49:28.962Z,44.07
2018-03-26T03:51:57.995Z,45.80
2018-03-26T03:54:26.784Z,37.80
2018-03-26T03:56:55.601Z,35.67
2018-03-26T03:59:24.084Z,40.20
2018-03-26T04:01:52.875Z,41.77
2018-03-26T04:04:21.436Z,39.53
2018-03-26T04:06:49.908Z,35.27
2018-03-26T04:09:18.701Z,41.17
2018-03-26T04:11:47.059Z,37.63
2018-03-26T04:14:16.646Z,38.47
2018-03-26T04:16:45.643Z,36.60
2018-03-26T04:19:14.281Z,35.37
2018-03-26T04:21:44.523Z,33.13
2018-03-26T04:24:12.965Z,37.30
2018-03-26T04:26:41.325Z,37.03
2018-03-26T04:29:09.693Z,36.90
2018-03-26T04:31:39.236Z,39.77
2018-03-26T04:34:08.103Z,37.63
2018-03-26T04:36:36.971Z,36.53
2018-03-26T04:39:06.113Z,36.37
2018-03-26T04:41:34.531Z,36.43
2018-03-26T04:44:02.910Z,29.07
2018-03-26T04:46:31.262Z,33.20
2018-03-26T04:48:59.638Z,38.70
2018-03-26T04:51:29.071Z,44.73
2018-03-26T04:53:58.397Z,49.40
2018-03-26T04:56:27.682Z,38.00
2018-03-26T04:58:56.550Z,34.73
2018-03-26T05:01:26.101Z,31.30
2018-03-26T05:03:54.728Z,37.03
2018-03-26T05:06:23.520Z,28.30
2018-03-26T05:08:51.908Z,32.63
2018-03-26T05:11:20.811Z,24.93
2018-03-26T05:13:49.198Z,21.90
2018-03-26T05:16:19.235Z,19.97
2018-03-26T05:18:49.182Z,24.43
2018-03-26T05:21:17.632Z,31.70
2018-03-26T05:23:46.425Z,34.13
2018-03-26T05:26:15.071Z,33.17
2018-03-26T05:28:44.039Z,28.20
2018-03-26T05:31:13.289Z,27.93
2018-03-26T05:33:42.529Z,27.30
2018-03-26T05:36:11.466Z,29.93
2018-03-26T05:38:40.698Z,33.90
2018-03-26T05:41:10.250Z,42.33
2018-03-26T05:43:39.588Z,42.00
2018-03-26T05:46:09.900Z,43.40
2018-03-26T05:48:38.804Z,37.00
2018-03-26T05:51:07.200Z,35.23
2018-03-26T05:53:35.976Z,45.03
2018-03-26T05:56:05.918Z,38.77
2018-03-26T05:58:34.859Z,36.37
2018-03-26T06:01:04.707Z,38.97
2018-03-26T06:03:34.219Z,35.70
2018-03-26T06:06:03.471Z,45.93
2018-03-26T06:08:33.039Z,55.47
2018-03-26T06:11:02.234Z,54.13
2018-03-26T06:13:32.955Z,49.10
2018-03-26T06:16:02.909Z,50.57
2018-03-26T06:18:31.710Z,41.37
2018-03-26T06:21:01.388Z,41.17
2018-03-26T06:23:30.085Z,41.90
2018-03-26T06:25:59.771Z,52.83
2018-03-26T06:28:28.617Z,56.33
2018-03-26T06:30:59.076Z,57.33
2018-03-26T06:33:28.183Z,55.60
2018-03-26T06:35:57.778Z,80.07
2018-03-26T06:38:32.424Z,61.73
2018-03-26T06:41:01.067Z,63.93
2018-03-26T06:43:29.489Z,69.80
2018-03-26T06:45:58.161Z,64.77
2018-03-26T06:48:26.653Z,70.13
2018-03-26T06:50:55.155Z,66.60
2018-03-26T06:53:23.529Z,56.97
2018-03-26T06:55:51.884Z,53.03
2018-03-26T06:58:20.734Z,49.37
2018-03-26T07:00:49.185Z,49.00
2018-03-26T07:03:18.389Z,42.90
2018-03-26T07:05:48.182Z,50.40
2018-03-26T07:08:17.631Z,51.80
2018-03-26T07:10:46.177Z,45.03
2018-03-26T07:13:15.347Z,35.10
2018-03-26T07:15:43.884Z,87.57
2018-03-26T07:18:12.278Z,45.80
2018-03-26T07:20:40.629Z,45.50
2018-03-26T07:23:09.386Z,57.40
2018-03-26T07:25:38.429Z,58.17
2018-03-26T07:28:06.938Z,57.37
2018-03-26T07:30:35.342Z,60.97
2018-03-26T07:33:04.464Z,55.83
2018-03-26T07:35:32.817Z,63.97
2018-03-26T07:38:02.044Z,67.00
2018-03-26T07:40:30.437Z,58.87
2018-03-26T07:42:59.048Z,65.60
2018-03-26T07:45:27.895Z,49.60
2018-03-26T07:47:56.286Z,55.13
2018-03-26T07:50:24.689Z,44.97
2018-03-26T07:52:53.904Z,42.70
2018-03-26T07:55:22.325Z,48.57
2018-03-26T07:57:52.115Z,46.67
2018-03-26T08:00:20.722Z,42.10
2018-03-26T08:02:50.059Z,61.07
2018-03-26T08:05:18.514Z,62.63
2018-03-26T08:07:47.830Z,47.57
2018-03-26T08:10:16.689Z,52.27
2018-03-26T08:12:45.114Z,47.33
2018-03-26T08:15:13.802Z,49.80
2018-03-26T08:17:42.708Z,52.53
2018-03-26T08:20:11.280Z,55.47
2018-03-26T08:22:39.639Z,57.63
2018-03-26T08:25:08.275Z,49.33
2018-03-26T08:27:36.746Z,62.17
2018-03-26T08:30:05.463Z,50.97
2018-03-26T08:32:34.682Z,56.83
2018-03-26T08:35:03.625Z,51.40
2018-03-26T08:37:32.681Z,49.27
2018-03-26T08:40:01.035Z,56.17
2018-03-26T08:42:29.457Z,47.27
2018-03-26T08:44:58.395Z,62.03
2018-03-26T08:47:27.947Z,57.00
2018-03-26T08:49:56.394Z,55.77
2018-03-26T08:52:25.583Z,50.83
2018-03-26T08:54:54.590Z,49.10
2018-03-26T08:57:23.446Z,54.53
2018-03-26T08:59:51.865Z,57.73
2018-03-26T09:02:21.335Z,60.10
2018-03-26T09:04:49.760Z,60.13
2018-03-26T09:07:18.671Z,64.20
2018-03-26T09:09:47.139Z,56.13
2018-03-26T09:12:15.526Z,55.47
2018-03-26T09:14:43.872Z,59.47
2018-03-26T09:17:12.224Z,59.93
2018-03-26T09:19:40.585Z,65.33
2018-03-26T09:22:09.253Z,64.30
2018-03-26T09:24:38.575Z,56.50
2018-03-26T09:27:07.368Z,57.87
2018-03-26T09:29:36.528Z,55.13
2018-03-26T09:32:05.141Z,60.23
2018-03-26T09:34:33.890Z,56.30
2018-03-26T09:37:03.271Z,50.97
2018-03-26T09:39:31.814Z,49.43
2018-03-26T09:42:00.606Z,43.83
2018-03-26T09:44:29.018Z,45.67
2018-03-26T09:46:57.541Z,41.00
2018-03-26T09:49:26.282Z,33.57
2018-03-26T09:51:55.841Z,44.83
2018-03-26T09:54:24.449Z,53.60
2018-03-26T09:56:53.559Z,37.73
2018-03-26T09:59:22.698Z,39.27
2018-03-26T10:01:57.199Z,38.20
2018-03-26T10:04:26.544Z,44.30
2018-03-26T10:06:56.078Z,35.77
2018-03-26T10:09:24.791Z,35.10
2018-03-26T10:11:53.343Z,34.17
2018-03-26T10:14:23.004Z,31.07
2018-03-26T10:16:51.357Z,31.50
2018-03-26T10:19:20.102Z,32.53
2018-03-26T10:21:49.160Z,33.43
2018-03-26T10:24:17.522Z,22.70
2018-03-26T10:26:46.654Z,18.50
2018-03-26T10:29:15.339Z,17.63
2018-03-26T10:31:44.020Z,14.40
2018-03-26T10:34:12.513Z,15.00
2018-03-26T10:36:40.981Z,13.87
2018-03-26T10:39:09.342Z,10.90
2018-03-26T10:41:37.833Z,15.60
2018-03-26T10:44:06.907Z,10.57
2018-03-26T10:46:35.467Z,10.57
2018-03-26T10:49:04.707Z,12.53
2018-03-26T10:51:33.308Z,10.37
2018-03-26T10:54:02.089Z,10.47
2018-03-26T10:56:31.320Z,12.43
2018-03-26T10:58:59.676Z,33.87
2018-03-26T11:01:29.378Z,19.40
2018-03-26T11:03:57.871Z,8.60
2018-03-26T11:06:26.362Z,13.03
2018-03-26T11:08:54.721Z,15.73
2018-03-26T11:11:23.627Z,20.03
2018-03-26T11:13:52.045Z,21.23
2018-03-26T11:16:20.896Z,22.67
2018-03-26T11:18:50.206Z,19.00
2018-03-26T11:21:19.032Z,15.13
2018-03-26T11:23:47.514Z,18.00
2018-03-26T11:26:16.317Z,18.67
2018-03-26T11:28:44.678Z,17.67
2018-03-26T11:31:14.229Z,14.10
2018-03-26T11:33:42.668Z,14.17
2018-03-26T11:36:11.627Z,19.17
2018-03-26T11:38:40.848Z,38.90
2018-03-26T11:41:09.617Z,16.90
2018-03-26T11:43:38.187Z,17.03
2018-03-26T11:46:06.766Z,14.73
2018-03-26T11:48:35.376Z,19.17
2018-03-26T11:51:03.746Z,18.73
2018-03-26T11:53:33.031Z,22.00
2018-03-26T11:56:01.570Z,18.30
2018-03-26T11:58:30.049Z,21.60
2018-03-26T12:00:58.737Z,23.30
2018-03-26T12:03:28.399Z,18.50
2018-03-26T12:05:57.328Z,16.53
2018-03-26T12:08:26.157Z,17.33
2018-03-26T12:10:54.545Z,15.03
2018-03-26T12:13:23.384Z,12.90
2018-03-26T12:15:52.025Z,19.37
2018-03-26T12:18:20.722Z,13.97
2018-03-26T12:21:00.244Z,18.43
2018-03-26T12:23:40.470Z,16.53
2018-03-26T12:26:08.899Z,24.47
2018-03-26T12:28:49.048Z,30.40
2018-03-26T12:31:17.885Z,30.80
2018-03-26T12:33:58.149Z,21.33
2018-03-26T12:36:27.448Z,23.40
2018-03-26T12:38:56.841Z,32.37
2018-03-26T12:41:27.706Z,17.63
2018-03-26T12:43:57.458Z,16.83
2018-03-26T12:46:37.785Z,13.03
2018-03-26T12:49:07.716Z,15.73
2018-03-26T12:51:47.942Z,15.03
2018-03-26T12:54:16.545Z,14.77
2018-03-26T12:56:45.314Z,18.93
2018-03-26T12:59:13.910Z,17.07
2018-03-26T13:01:55.290Z,30.70
2018-03-26T13:04:23.697Z,32.33
2018-03-26T13:06:53.088Z,13.63
2018-03-26T13:09:23.221Z,19.63
2018-03-26T13:11:54.071Z,12.80
2018-03-26T13:14:24.541Z,8.47
2018-03-26T13:16:54.166Z,12.30
2018-03-26T13:19:23.380Z,11.13
2018-03-26T13:21:51.883Z,11.57
2018-03-26T13:24:20.545Z,8.73
2018-03-26T13:26:50.125Z,10.07
2018-03-26T13:29:18.522Z,14.40
2018-03-26T13:31:46.878Z,11.20
2018-03-26T13:34:15.269Z,8.47
2018-03-26T13:36:43.636Z,14.10
2018-03-26T13:39:12.516Z,9.77
2018-03-26T13:41:41.183Z,11.17
2018-03-26T13:44:11.162Z,10.13
2018-03-26T13:46:39.541Z,13.07
2018-03-26T13:49:08.909Z,13.00
2018-03-26T13:51:37.337Z,5.53
2018-03-26T13:54:06.067Z,6.90
2018-03-26T13:56:34.513Z,10.57
2018-03-26T13:59:02.853Z,6.60
2018-03-26T14:01:31.438Z,9.07
2018-03-26T14:04:00.722Z,13.00
2018-03-26T14:06:29.103Z,5.07
2018-03-26T14:09:10.661Z,6.97
2018-03-26T14:14:53.998Z,64.93
2018-03-26T14:17:34.566Z,11.93
2018-03-26T14:20:03.246Z,13.97
2018-03-26T14:22:31.686Z,12.33
2018-03-26T14:25:00.401Z,19.67
2018-03-26T14:27:29.980Z,6.10
2018-03-26T14:29:59.422Z,7.50
2018-03-26T14:32:27.853Z,6.00
2018-03-26T14:35:08.236Z,4.27
2018-03-26T14:37:36.851Z,5.73
2018-03-26T14:40:05.441Z,7.43
2018-03-26T14:42:33.809Z,11.40
2018-03-26T14:45:02.747Z,8.17
2018-03-26T14:47:32.134Z,9.37
2018-03-26T14:50:00.655Z,13.07
2018-03-26T14:52:29.021Z,11.80
2018-03-26T14:54:57.689Z,10.23
2018-03-26T14:57:27.350Z,8.87
2018-03-26T14:59:56.153Z,6.10
2018-03-26T15:02:24.638Z,5.90
2018-03-26T15:04:53.062Z,11.63
2018-03-26T15:07:21.412Z,4.00
2018-03-26T15:09:50.119Z,6.53
2018-03-26T15:12:19.561Z,8.47
2018-03-26T15:14:47.989Z,13.23
2018-03-26T15:17:16.359Z,22.80
2018-03-26T15:19:45.417Z,7.10
2018-03-26T15:22:13.766Z,7.47
2018-03-26T15:24:42.431Z,6.60
2018-03-26T15:27:11.282Z,8.07
2018-03-26T15:29:39.658Z,11.50
2018-03-26T15:32:08.135Z,5.47
2018-03-26T15:34:36.485Z,8.63
2018-03-26T15:37:05.144Z,5.77
2018-03-26T15:39:33.917Z,7.87
2018-03-26T15:42:02.648Z,7.93
2018-03-26T15:44:31.016Z,7.47
2018-03-26T15:46:59.367Z,13.13
2018-03-26T15:49:28.000Z,6.83
2018-03-26T15:51:56.354Z,9.03
2018-03-26T15:54:25.052Z,14.70
2018-03-26T15:56:53.414Z,11.80
2018-03-26T15:59:22.017Z,6.67
2018-03-26T16:01:50.375Z,11.57
2018-03-26T16:04:18.757Z,8.07
2018-03-26T16:06:47.124Z,10.93
2018-03-26T16:09:15.489Z,9.07
2018-03-26T16:11:43.861Z,9.03
2018-03-26T16:14:13.727Z,31.17
2018-03-26T16:16:42.077Z,20.50
2018-03-26T16:19:10.426Z,10.30
2018-03-26T16:21:38.915Z,10.50
2018-03-26T16:24:07.786Z,7.40
2018-03-26T16:26:36.560Z,13.40
2018-03-26T16:29:04.907Z,9.43
2018-03-26T16:31:33.589Z,9.73
2018-03-26T16:34:02.383Z,13.90
2018-03-26T16:36:30.745Z,12.17
2018-03-26T16:38:59.630Z,13.70
2018-03-26T16:41:40.733Z,8.83
2018-03-26T16:44:09.741Z,15.73
2018-03-26T16:46:38.097Z,22.67
2018-03-26T16:49:06.523Z,14.67
2018-03-26T16:51:36.132Z,11.93
2018-03-26T16:54:04.533Z,10.10
2018-03-26T16:56:32.895Z,7.80
2018-03-26T16:59:01.255Z,10.53
2018-03-26T17:01:29.850Z,8.87
2018-03-26T17:03:58.219Z,17.37
2018-03-26T17:06:26.582Z,11.03
2018-03-26T17:08:54.937Z,12.23
2018-03-26T17:11:23.300Z,17.60
2018-03-26T17:13:51.662Z,11.97
2018-03-26T17:16:20.080Z,14.50
2018-03-26T17:18:48.734Z,14.33
2018-03-26T17:21:17.113Z,13.53
2018-03-26T17:23:45.469Z,20.90
2018-03-26T17:26:14.173Z,18.63
2018-03-26T17:28:42.526Z,14.67
2018-03-26T17:31:10.931Z,12.67
2018-03-26T17:33:39.285Z,14.87
2018-03-26T17:36:07.698Z,12.93
2018-03-26T17:38:36.458Z,17.03
2018-03-26T17:41:05.092Z,14.00
2018-03-26T17:43:34.385Z,12.70
2018-03-26T17:46:02.739Z,18.53
2018-03-26T17:48:31.458Z,13.63
2018-03-26T17:51:00.138Z,17.77
2018-03-26T17:53:29.040Z,13.60
2018-03-26T17:55:57.410Z,11.60
2018-03-26T17:58:25.812Z,12.13
2018-03-26T18:00:55.078Z,16.10
2018-03-26T18:03:23.772Z,13.40
2018-03-26T18:05:52.534Z,15.37
2018-03-26T18:08:20.887Z,22.70
2018-03-26T18:10:49.546Z,23.10
2018-03-26T18:13:18.702Z,22.40
2018-03-26T18:15:48.495Z,19.07
2018-03-26T18:18:17.268Z,26.83
2018-03-26T18:20:46.599Z,31.80
2018-03-26T18:23:15.078Z,30.97
2018-03-26T18:25:43.526Z,24.67
2018-03-26T18:28:12.026Z,23.17
2018-03-26T18:30:40.472Z,20.13
2018-03-26T18:33:09.631Z,26.77
2018-03-26T18:35:37.986Z,17.03
2018-03-26T18:38:06.401Z,18.70
2018-03-26T18:40:35.025Z,17.23
2018-03-26T18:43:05.632Z,12.73
2018-03-26T18:45:34.536Z,10.17
2018-03-26T18:48:03.274Z,9.10
2018-03-26T18:50:32.195Z,10.57
2018-03-26T18:53:01.323Z,14.73
2018-03-26T18:55:30.177Z,13.00
2018-03-26T18:57:58.563Z,18.07
2018-03-26T19:00:26.922Z,7.90
2018-03-26T19:02:55.273Z,10.07
2018-03-26T19:05:23.996Z,12.30
2018-03-26T19:07:52.386Z,12.20
2018-03-26T19:10:20.807Z,12.33
2018-03-26T19:12:49.841Z,9.70
2018-03-26T19:15:18.604Z,16.00
2018-03-26T19:17:47.038Z,15.43
2018-03-26T19:20:15.454Z,16.33
2018-03-26T19:22:43.853Z,12.80
2018-03-26T19:25:12.683Z,11.73
2018-03-26T19:27:41.075Z,14.03
2018-03-26T19:30:10.406Z,16.13
2018-03-26T19:32:38.792Z,12.50
2018-03-26T19:35:08.060Z,12.90
2018-03-26T19:37:37.633Z,9.87
2018-03-26T19:40:07.583Z,11.93
2018-03-26T19:42:36.617Z,8.70
2018-03-26T19:45:05.329Z,7.33
2018-03-26T19:47:33.973Z,4.17
2018-03-26T19:50:02.336Z,8.93
2018-03-26T19:52:30.785Z,9.93
2018-03-26T19:54:59.574Z,9.70
2018-03-26T19:57:29.676Z,15.57
2018-03-26T19:59:58.070Z,9.70
2018-03-26T20:02:27.068Z,8.87
2018-03-26T20:04:55.417Z,6.30
2018-03-26T20:07:23.773Z,4.57
2018-03-26T20:09:52.871Z,6.47
2018-03-26T20:12:21.269Z,9.53
2018-03-26T20:14:50.482Z,5.70
2018-03-26T20:17:19.095Z,4.97
2018-03-26T20:19:47.782Z,4.60
2018-03-26T20:22:16.133Z,6.43
2018-03-26T20:24:44.505Z,9.77
2018-03-26T20:27:13.224Z,7.40
2018-03-26T20:29:41.895Z,10.63
2018-03-26T20:32:10.575Z,7.33
2018-03-26T20:34:39.654Z,6.57
2018-03-26T20:37:08.059Z,6.67
2018-03-26T20:39:36.402Z,3.47
2018-03-26T20:42:05.116Z,3.60
2018-03-26T20:44:34.212Z,5.97
2018-03-26T20:47:02.603Z,10.43
2018-03-26T20:49:32.316Z,6.40
2018-03-26T20:52:02.598Z,6.90
2018-03-26T20:54:30.980Z,4.00
2018-03-26T20:56:59.841Z,2.40
2018-03-26T20:59:28.486Z,3.00
2018-03-26T21:01:57.084Z,4.17
2018-03-26T21:04:25.757Z,8.27
2018-03-26T21:06:54.137Z,2.80
2018-03-26T21:09:22.548Z,3.47
2018-03-26T21:11:51.831Z,6.70
2018-03-26T21:14:22.774Z,4.27
2018-03-26T21:16:54.642Z,4.77
2018-03-26T21:19:23.818Z,3.67
2018-03-26T21:21:54.075Z,3.77
2018-03-26T21:24:22.642Z,3.17
2018-03-26T21:26:51.650Z,4.13
2018-03-26T21:29:20.395Z,5.07
2018-03-26T21:31:49.617Z,5.17
2018-03-26T21:34:17.958Z,5.70
2018-03-26T21:36:49.614Z,7.20
2018-03-26T21:39:18.229Z,22.30
2018-03-26T21:41:47.049Z,3.80
2018-03-26T21:44:15.501Z,6.37
2018-03-26T21:46:44.450Z,3.33
2018-03-26T21:49:13.627Z,2.63
2018-03-26T21:51:42.049Z,7.87
2018-03-26T21:54:12.869Z,5.80
2018-03-26T21:56:41.719Z,3.07
2018-03-26T21:59:10.613Z,5.87
2018-03-26T22:01:40.000Z,4.53
2018-03-26T22:04:09.573Z,3.83
2018-03-26T22:06:39.813Z,5.43
2018-03-26T22:09:08.961Z,3.67
2018-03-26T22:11:38.157Z,5.37
2018-03-26T22:14:06.744Z,4.00
2018-03-26T22:16:36.230Z,8.00
2018-03-26T22:19:05.063Z,4.87
2018-03-26T22:21:35.382Z,3.20
2018-03-26T22:24:04.864Z,8.60
2018-03-26T22:26:33.575Z,7.93
2018-03-26T22:29:01.937Z,2.43
2018-03-26T22:31:31.032Z,4.80
2018-03-26T22:34:00.843Z,3.27
2018-03-26T22:36:29.224Z,4.97
2018-03-26T22:38:57.645Z,8.27
2018-03-26T22:41:26.225Z,1.90
2018-03-26T22:43:54.790Z,3.40
2018-03-26T22:46:24.768Z,2.10
2018-03-26T22:48:53.171Z,6.43
2018-03-26T22:51:22.180Z,4.00
2018-03-26T22:53:50.857Z,3.73
2018-03-26T22:56:19.665Z,5.77
2018-03-26T23:01:20.894Z,2.57
2018-03-26T23:03:49.335Z,2.93
2018-03-26T23:06:18.427Z,4.50
2018-03-26T23:08:47.065Z,4.03
2018-03-26T23:11:15.751Z,4.30
2018-03-26T23:13:44.240Z,5.27
2018-03-26T23:16:13.355Z,7.27
2018-03-26T23:18:41.704Z,3.57
2018-03-26T23:21:10.075Z,2.90
2018-03-26T23:23:38.924Z,4.07
2018-03-26T23:26:08.263Z,5.70
2018-03-26T23:28:37.973Z,2.73
2018-03-26T23:31:07.271Z,3.23
2018-03-26T23:33:36.833Z,3.00
2018-03-26T23:36:06.256Z,3.70
2018-03-26T23:38:35.142Z,2.50
2018-03-26T23:41:03.805Z,2.70
2018-03-26T23:43:33.339Z,2.67
2018-03-26T23:46:02.006Z,4.03
2018-03-26T23:48:30.407Z,4.33
2018-03-26T23:50:59.060Z,1.93
2018-03-26T23:53:28.527Z,4.80
2018-03-26T23:55:56.868Z,1.50
2018-03-26T23:58:25.218Z,3.07
